Data for 07/27/2013

Time Sea-Level Adjusted Pressure Absolute Pressure Temperature Relative Humidity Dew Point   
(mb) (inHg) (mb) (inHg) (C) (F) (%) (C) (F)
00:05 1021 30.15 850 25.1 19.7 67.5 49 8.7 47.7
00:10 1021 30.15 850 25.1 19.6 67.3 49 8.7 47.7
00:15 1021 30.15 850 25.1 19.5 67.1 49 8.7 47.7
00:20 1021 30.15 850 25.1 19.5 67.1 49 8.8 47.8
00:25 1021 30.15 850 25.1 19.4 66.9 49 8.7 47.6
00:30 1021 30.15 850 25.1 19.3 66.7 50 8.8 47.8
00:35 1021 30.15 850 25.1 19.2 66.5 50 8.7 47.7
00:40 1021 30.15 850 25.1 19.1 66.4 51 8.8 47.8
00:45 1021 30.15 850 25.1 19 66.2 51 8.7 47.7
00:50 1021 30.15 850 25.1 18.9 66.1 51 8.7 47.7
00:55 1021 30.15 850 25.1 18.9 66 51 8.8 47.8
01:00 1021 30.15 850 25.1 18.8 65.8 51 8.7 47.7
01:05 1021 30.15 850 25.1 18.8 65.9 51 8.6 47.5
01:10 1021 30.15 850 25.1 18.8 65.9 52 8.8 47.8
01:15 1021 30.15 850 25.1 18.7 65.6 52 8.7 47.7
01:20 1021 30.15 850 25.1 18.6 65.5 52 8.7 47.7
01:25 1021 30.15 850 25.1 18.5 65.4 52 8.7 47.7
01:30 1021 30.15 850 25.1 18.5 65.4 52 8.7 47.6
01:35 1021 30.15 850 25.1 18.6 65.4 52 8.6 47.5
01:40 1021 30.15 850 25.1 18.5 65.2 53 8.7 47.6
01:45 1021 30.15 850 25.1 18.2 64.8 53 8.7 47.7
01:50 1021 30.15 850 25.1 18 64.5 54 8.7 47.6
01:55 1021 30.15 850 25.1 17.8 64.1 55 8.7 47.6
02:00 1021 30.15 850 25.1 17.7 63.9 55 8.7 47.6
02:05 1021 30.15 850 25.1 17.5 63.5 56 8.7 47.7
02:10 1021 30.15 850 25.1 17.3 63.2 56 8.6 47.5
02:15 1021 30.15 850 25.1 17.3 63.1 56 8.6 47.5
02:20 1021 30.15 850 25.1 17.2 63 56 8.5 47.4
02:25 1021 30.15 850 25.1 17.2 63 57 8.6 47.5
02:30 1021 30.15 850 25.1 17.4 63.3 56 8.6 47.5
02:35 1021 30.15 850 25.1 17.4 63.2 56 8.6 47.5
02:40 1021 30.15 850 25.1 17.2 62.9 57 8.6 47.5
02:45 1021 30.15 850 25.1 16.9 62.4 57 8.5 47.3
02:50 1021 30.15 850 25.1 16.9 62.4 57 8.4 47.2
02:55 1021 30.15 850 25.1 16.7 62.1 58 8.4 47.2
03:00 1021 30.15 850 25.1 16.7 62.1 58 8.4 47.1
03:05 1021 30.15 850 25.1 16.7 62.1 58 8.5 47.3
03:10 1021 30.15 850 25.1 16.7 62.1 58 8.4 47.1
03:15 1021 30.15 850 25.1 16.8 62.2 57 8.4 47.1
03:20 1021 30.15 850 25.1 16.8 62.2 58 8.5 47.3
03:25 1021 30.15 850 25.1 16.7 62.1 58 8.5 47.4
03:30 1021 30.15 850 25.1 16.6 61.9 58 8.5 47.3
03:35 1021 30.15 850 25.1 16.5 61.7 59 8.4 47.2
03:40 1021 30.15 850 25.1 16.4 61.6 59 8.4 47.2
03:45 1021 30.15 850 25.1 16.4 61.4 59 8.4 47.1
03:50 1021 30.15 850 25.1 16.3 61.3 59 8.4 47.2
03:55 1021 30.15 850 25.1 16.2 61.2 59 8.3 47
04:00 1021 30.15 850 25.1 16.3 61.3 59 8.2 46.8
04:05 1021 30.15 850 25.1 16.3 61.3 59 8.4 47.1
04:10 1021 30.15 850 25.1 16.1 60.9 59 8.2 46.7
04:15 1021 30.15 850 25.1 16.1 61.1 59 8.3 46.9
04:20 1021 30.15 850 25.1 15.9 60.7 60 8.2 46.7
04:25 1021 30.15 850 25.1 15.9 60.6 59 8 46.5
04:30 1021 30.15 850 25.1 16 60.8 58 7.8 46
04:35 1021 30.15 850 25.1 16.1 61 58 7.9 46.2
04:40 1021 30.15 850 25.1 16.1 61 58 7.8 46.1
04:45 1021 30.15 850 25.1 16.1 60.9 58 8 46.3
04:50 1021 30.15 850 25.1 15.9 60.7 58 7.9 46.2
04:55 1021 30.15 850 25.1 16 60.7 59 8 46.3
05:00 1021 30.15 850 25.1 15.7 60.3 59 7.9 46.2
05:05 1021 30.15 850 25.1 15.7 60.3 59 7.9 46.1
05:10 1021 30.15 850 25.1 15.6 60 59 7.8 46
05:15 1021 30.15 850 25.1 15.5 59.9 59 7.7 45.9
05:20 1021 30.15 850 25.1 15.5 59.9 59 7.7 45.8
05:25 1021 30.15 850 25.1 15.6 60 59 7.6 45.7
05:30 1021 30.15 850 25.1 15.8 60.4 58 7.5 45.6
05:35 1021 30.15 850 25.1 15.8 60.5 57 7.5 45.4
05:40 1021 30.15 850 25.1 15.5 59.9 57 7.2 44.9
05:45 1021 30.15 850 25.1 15.5 59.9 57 7.1 44.7
05:50 1021 30.15 850 25.1 15.5 59.9 57 7 44.6
05:55 1021 30.15 850 25.1 15.7 60.3 56 7.1 44.8
06:00 1021 30.15 850 25.1 15.9 60.6 56 7.2 45
06:05 1021 30.15 850 25.1 16.1 61 55 7.3 45.1
06:10 1021 30.15 850 25.1 16.3 61.3 55 7.3 45.1
06:15 1021 30.15 850 25.1 16.4 61.5 54 7.2 45
06:20 1021 30.15 850 25.1 16.4 61.6 54 7.2 44.9
06:25 1021 30.15 850 25.1 16.6 61.9 53 7.2 44.9
06:30 1021 30.15 850 25.1 16.8 62.2 53 7.2 44.9
06:35 1020 30.12 850 25.1 17 62.5 53 7.4 45.4
06:40 1021 30.15 850 25.1 17.2 63 52 7.4 45.3
06:45 1021 30.15 850 25.1 17.5 63.5 51 7.4 45.4
06:50 1021 30.15 850 25.1 18.1 64.5 50 7.6 45.6
06:55 1020 30.12 850 25.1 18.5 65.2 50 7.9 46.2
07:00 1021 30.15 850 25.1 18.7 65.6 49 7.9 46.2
07:05 1020 30.12 850 25.1 19 66.1 47 7.7 45.8
07:10 1021 30.15 850 25.1 19.3 66.7 48 8 46.5
07:15 1020 30.12 850 25.1 19.7 67.5 47 8.2 46.8
07:20 1020 30.12 850 25.1 20 67.9 46 8.3 46.9
07:25 1020 30.12 850 25.1 19.8 67.6 47 8.4 47.1
07:30 1020 30.12 849 25.07 19.8 67.7 46 8 46.4
07:35 1020 30.12 849 25.07 19.8 67.7 46 8 46.4
07:40 1020 30.12 849 25.07 20.3 68.6 44 7.8 46
07:45 1020 30.12 850 25.1 21.1 70 41 7.6 45.8
07:50 1020 30.12 850 25.1 21 69.8 42 7.8 46
07:55 1020 30.12 849 25.07 21.1 70 42 7.8 46.1
08:00 1020 30.12 849 25.07 21.6 70.8 40 7.4 45.3
08:05 1020 30.12 849 25.07 22.1 71.9 40 8.2 46.8
08:10 1020 30.12 849 25.07 22 71.5 39 7.5 45.4
08:15 1020 30.12 849 25.07 21.8 71.2 41 8 46.3
08:20 1020 30.12 849 25.07 22.2 72 41 8.5 47.3
08:25 1020 30.12 849 25.07 22.7 72.8 36 7 44.6
08:30 1020 30.12 849 25.07 22.6 72.7 36 7.1 44.9
08:35 1020 30.12 849 25.07 22.8 73 38 7.8 46
08:40 1020 30.12 849 25.07 23.4 74.1 36 7.7 45.8
08:45 1020 30.12 849 25.07 24 75.2 35 7.7 45.9
08:50 1020 30.12 849 25.07 24.1 75.3 33 7.2 45
08:55 1020 30.12 849 25.07 24.1 75.3 38 9.1 48.4
09:00 1020 30.12 849 25.07 23.7 74.7 38 8.7 47.7
09:05 1020 30.12 849 25.07 23.4 74.2 40 9.3 48.7
09:10 1020 30.12 849 25.07 23.6 74.4 39 9 48.2
09:15 1020 30.12 849 25.07 23.7 74.7 39 9 48.2
09:20 1020 30.12 849 25.07 24.2 75.6 37 8.9 48
09:25 1020 30.12 849 25.07 24.9 76.7 36 9.1 48.5
09:30 1020 30.12 849 25.07 25 77 34 8.1 46.6
09:35 1020 30.12 849 25.07 24.8 76.7 33 7.9 46.2
09:40 1020 30.12 849 25.07 24.8 76.6 28 5.5 41.9
09:45 1020 30.12 849 25.07 25.1 77.2 27 5.2 41.4
09:50 1020 30.12 849 25.07 25.5 77.9 27 5.6 42.1
09:55 1020 30.12 849 25.07 25.6 78 27 5.6 42.1
10:00 1020 30.12 849 25.07 26.2 79.2 29 6.9 44.3
10:05 1020 30.12 849 25.07 26.9 80.4 24 4.9 40.7
10:10 1020 30.12 849 25.07 27.3 81.1 24 5 41.1
10:15 1020 30.12 849 25.07 27.7 81.8 22 4.5 40.1
10:20 1020 30.12 849 25.07 27.5 81.6 25 5.9 42.7
10:25 1020 30.12 849 25.07 27 80.6 25 5.5 42
10:30 1019 30.09 849 25.07 26.6 79.8 25 5.4 41.8
10:35 1020 30.12 849 25.07 26.7 80.1 26 5.8 42.4
10:40 1020 30.12 849 25.07 26.1 79 25 4.9 40.7
10:45 1020 30.12 849 25.07 26.4 79.5 27 6.1 42.9
10:50 1020 30.12 849 25.07 26 78.8 30 7.2 45
10:55 1019 30.09 849 25.07 25.5 77.9 29 6.6 43.8
11:00 1020 30.12 849 25.07 25.6 78.1 30 6.9 44.4
11:05 1020 30.12 849 25.07 25.4 77.7 32 7.9 46.1
11:10 1020 30.12 849 25.07 24.9 76.8 32 7.2 44.9
11:15 1020 30.12 849 25.07 24.1 75.3 32 6.7 44
11:20 1020 30.12 849 25.07 23.6 74.5 36 8 46.3
11:25 1020 30.12 849 25.07 23.8 74.8 35 7.7 45.9
11:30 1020 30.12 849 25.07 23.9 74.9 30 5.5 41.9
11:35 1020 30.12 849 25.07 24.1 75.3 31 5.9 42.7
11:40 1020 30.12 849 25.07 24.6 76.3 29 5.7 42.2
11:45 1020 30.12 849 25.07 24.9 76.8 26 4.4 40
11:50 1020 30.12 849 25.07 25 77.1 27 5.1 41.1
11:55 1020 30.12 849 25.07 24.9 76.8 27 4.8 40.6
12:00 1020 30.12 849 25.07 24.9 76.8 26 4.1 39.3
12:05 1020 30.12 849 25.07 25.1 77.2 25 4 39.2
12:10 1020 30.12 849 25.07 25 76.9 27 4.8 40.7
12:15 1020 30.12 849 25.07 24.5 76.1 29 5.5 41.9
12:20 1020 30.12 849 25.07 23.9 75 29 5.1 41.1
12:25 1020 30.12 849 25.07 23.8 74.8 29 4.9 40.9
12:30 1020 30.12 849 25.07 23.9 74.9 29 5 41.1
12:35 1020 30.12 849 25.07 24 75.1 31 5.8 42.5
12:40 1020 30.12 849 25.07 23.9 75.1 30 5.6 42.2
12:45 1020 30.12 849 25.07 24 75.2 29 5.4 41.6
12:50 1020 30.12 849 25.07 24.2 75.6 29 5.4 41.8
12:55 1020 30.12 849 25.07 24.6 76.2 29 5.5 41.9
13:00 1020 30.12 849 25.07 24.7 76.5 27 4.8 40.6
13:05 1020 30.12 849 25.07 24.8 76.7 29 5.8 42.4
13:10 1020 30.12 849 25.07 24.9 76.8 28 5.3 41.6
13:15 1020 30.12 849 25.07 24.7 76.4 28 5 41
13:20 1020 30.12 849 25.07 24.4 76 28 5.1 41.2
13:25 1020 30.12 849 25.07 24.1 75.4 28 4.9 40.9
13:30 1020 30.12 849 25.07 24 75.1 31 5.8 42.5
13:35 1019 30.09 849 25.07 23.6 74.5 29 4.6 40.3
13:40 1019 30.09 849 25.07 23.8 74.8 29 4.7 40.4
13:45 1019 30.09 849 25.07 24.1 75.3 28 4.5 40.1
13:50 1019 30.09 849 25.07 23.8 74.9 30 5.5 42
13:55 1019 30.09 849 25.07 23.4 74.1 30 5 40.9
14:00 1019 30.09 849 25.07 23.2 73.7 30 4.9 40.8
14:05 1020 30.12 849 25.07 23.1 73.5 35 7 44.6
14:10 1020 30.12 849 25.07 22.3 72.2 33 5.6 42.2
14:15 1020 30.12 849 25.07 22.2 72 34 6 42.7
14:20 1019 30.09 849 25.07 22.4 72.3 36 6.8 44.3
14:25 1019 30.09 848 25.04 22.4 72.4 37 7.3 45.1
14:30 1019 30.09 848 25.04 22.4 72.3 42 8.9 48
14:35 1019 30.09 848 25.04 22.5 72.4 39 8.2 46.7
14:40 1019 30.09 848 25.04 22.4 72.3 38 7.7 45.9
14:45 1019 30.09 848 25.04 22.4 72.3 40 8.2 46.7
14:50 1019 30.09 848 25.04 22.5 72.5 37 7.4 45.3
14:55 1019 30.09 848 25.04 23 73.4 39 8.4 47.2
15:00 1019 30.09 848 25.04 23.5 74.3 34 7 44.6
15:05 1019 30.09 848 25.04 23.6 74.4 33 6.5 43.8
15:10 1019 30.09 848 25.04 23.6 74.5 35 7.5 45.6
15:15 1019 30.09 848 25.04 23.3 74 35 7.1 44.9
15:20 1018 30.06 848 25.04 23 73.5 35 7 44.5
15:25 1018 30.06 848 25.04 23.2 73.7 33 6.1 43
15:30 1018 30.06 847 25.01 23.8 74.9 32 6.3 43.3
15:35 1018 30.06 847 25.01 23.9 74.9 32 6.5 43.7
15:40 1018 30.06 847 25.01 24.1 75.4 31 6.4 43.4
15:45 1018 30.06 847 25.01 24.3 75.7 29 5.5 41.8
15:50 1018 30.06 847 25.01 24.4 75.9 29 5.6 42.1
15:55 1018 30.06 847 25.01 24.5 76 30 6.1 43
16:00 1018 30.06 847 25.01 24.4 75.9 31 6.5 43.7
16:05 1018 30.06 847 25.01 24.6 76.3 31 6.7 44.1
16:10 1018 30.06 847 25.01 24.3 75.7 32 6.8 44.3
16:15 1018 30.06 847 25.01 24.3 75.8 33 7.1 44.7
16:20 1018 30.06 847 25.01 24.1 75.4 32 6.5 43.7
16:25 1018 30.06 847 25.01 23.9 75.1 32 6.5 43.7
16:30 1018 30.06 847 25.01 23.8 74.8 33 6.6 44
16:35 1018 30.06 847 25.01 23.7 74.7 33 6.6 43.9
16:40 1018 30.06 847 25.01 23.6 74.4 32 6.2 43.2
16:45 1018 30.06 847 25.01 23.4 74.1 33 6.3 43.4
16:50 1018 30.06 847 25.01 23.3 74 33 6.2 43.2
16:55 1018 30.06 847 25.01 23.2 73.7 34 6.6 43.9
17:00 1018 30.06 847 25.01 23.1 73.6 32 5.8 42.5
17:05 1018 30.06 847 25.01 23.2 73.8 32 5.9 42.6
17:10 1017 30.03 847 25.01 23.5 74.3 32 6.1 43
17:15 1017 30.03 847 25.01 23.9 75.1 31 6 42.8
17:20 1017 30.03 846 24.98 24 75.1 31 5.9 42.7
17:25 1017 30.03 846 24.98 23.8 74.8 31 5.8 42.4
17:30 1017 30.03 846 24.98 23.5 74.4 32 6 42.7
17:35 1017 30.03 846 24.98 23.4 74.1 32 5.8 42.4
17:40 1017 30.03 846 24.98 23.7 74.6 32 6 42.8
17:45 1017 30.03 846 24.98 23.8 74.9 31 5.9 42.5
17:50 1017 30.03 846 24.98 23.7 74.7 31 6 42.8
17:55 1017 30.03 846 24.98 23.8 74.8 29 5.1 41.2
18:00 1017 30.03 846 24.98 24 75.2 30 5.8 42.5
18:05 1017 30.03 846 24.98 24.6 76.2 29 5.8 42.5
18:10 1017 30.03 846 24.98 24.6 76.2 28 5.4 41.6
18:15 1017 30.03 846 24.98 24.5 76 29 5.3 41.5
18:20 1017 30.03 846 24.98 24.1 75.5 29 5.1 41.2
18:25 1017 30.03 846 24.98 24.1 75.3 29 5.3 41.5
18:30 1017 30.03 846 24.98 24 75.2 30 5.4 41.8
18:35 1017 30.03 846 24.98 24 75.1 29 5.1 41.2
18:40 1017 30.03 846 24.98 24 75.1 28 4.8 40.7
18:45 1017 30.03 846 24.98 23.9 75 30 5.4 41.7
18:50 1017 30.03 846 24.98 23.8 74.9 31 5.8 42.5
18:55 1017 30.03 846 24.98 23.7 74.6 32 6.2 43.2
19:00 1017 30.03 846 24.98 23.5 74.3 34 6.8 44.2
19:05 1017 30.03 846 24.98 23.2 73.8 35 7.2 44.9
19:10 1017 30.03 846 24.98 22.9 73.1 36 7.1 44.9
19:15 1017 30.03 846 24.98 22.5 72.5 37 7.4 45.3
19:20 1017 30.03 846 24.98 22.1 71.9 37 7 44.6
19:25 1017 30.03 846 24.98 22 71.5 37 6.7 44
19:30 1017 30.03 846 24.98 21.9 71.4 38 7 44.6
19:35 1017 30.03 846 24.98 21.7 71 38 6.8 44.2
19:40 1017 30.03 846 24.98 21.5 70.7 38 6.6 43.9
19:45 1017 30.03 846 24.98 21.4 70.5 38 6.7 44
19:50 1017 30.03 846 24.98 21.2 70.2 38 6.4 43.5
19:55 1017 30.03 846 24.98 21.2 70.2 37 6.2 43.1
20:00 1017 30.03 846 24.98 21 69.8 39 6.6 43.9
20:05 1017 30.03 846 24.98 20.7 69.3 40 6.7 44
20:10 1017 30.03 846 24.98 20.5 68.8 40 6.6 43.8
20:15 1017 30.03 846 24.98 20.3 68.5 41 6.7 44.1
20:20 1017 30.03 846 24.98 20 68 42 6.8 44.2
20:25 1017 30.03 846 24.98 19.7 67.4 43 6.9 44.4
20:30 1017 30.03 846 24.98 19.6 67.2 43 6.8 44.2
20:35 1017 30.03 846 24.98 19.7 67.4 43 6.8 44.3
20:40 1017 30.03 846 24.98 19.6 67.2 43 6.8 44.2
20:45 1017 30.03 846 24.98 19.5 67.2 43 6.8 44.2
20:50 1017 30.03 846 24.98 19.4 66.9 43 6.8 44.2
20:55 1017 30.03 846 24.98 19.4 66.8 43 6.7 44.1
21:00 1017 30.03 846 24.98 19.3 66.7 43 6.7 44.1
21:05 1017 30.03 846 24.98 19.2 66.6 44 6.8 44.2
21:10 1017 30.03 846 24.98 19 66.3 45 6.9 44.5
21:15 1017 30.03 846 24.98 18.9 66 44 6.6 43.9
21:20 1017 30.03 846 24.98 19.1 66.4 43 6.5 43.7
21:25 1017 30.03 846 24.98 19.1 66.4 44 6.7 44
21:30 1017 30.03 846 24.98 19 66.1 44 6.5 43.7
21:35 1017 30.03 846 24.98 18.9 66 44 6.7 44
21:40 1017 30.03 846 24.98 18.8 65.8 44 6.5 43.6
21:45 1017 30.03 846 24.98 18.8 65.9 45 6.7 44
21:50 1017 30.03 846 24.98 18.7 65.6 45 6.7 44
21:55 1017 30.03 846 24.98 18.5 65.4 46 6.8 44.2
22:00 1017 30.03 846 24.98 18.4 65.1 47 6.9 44.4
22:05 1017 30.03 846 24.98 17.8 64 49 7 44.6
22:10 1017 30.03 846 24.98 17.4 63.4 54 8 46.4
22:15 1017 30.03 846 24.98 17.4 63.3 50 6.8 44.3
22:20 1017 30.03 846 24.98 17.3 63.1 49 6.7 44
22:25 1017 30.03 846 24.98 17.4 63.4 50 6.9 44.5
22:30 1017 30.03 846 24.98 17.2 63 52 7.4 45.3
22:35 1017 30.03 846 24.98 17.2 63 50 6.7 44.1
22:40 1017 30.03 846 24.98 17.1 62.7 49 6.5 43.7
22:45 1017 30.03 846 24.98 17 62.7 50 6.7 44
22:50 1017 30.03 846 24.98 16.9 62.5 51 6.8 44.3
22:55 1017 30.03 846 24.98 17.1 62.7 49 6.5 43.7
23:00 1017 30.03 846 24.98 16.9 62.4 51 6.8 44.2
23:05 1017 30.03 846 24.98 16.5 61.7 51 6.4 43.6
23:10 1017 30.03 846 24.98 16.3 61.3 50 6.1 42.9
23:15 1017 30.03 846 24.98 16.3 61.4 51 6.3 43.4
23:20 1017 30.03 846 24.98 16.4 61.5 49 5.7 42.3
23:25 1017 30.03 846 24.98 16.9 62.4 50 6.4 43.6
23:30 1017 30.03 846 24.98 16.7 62.1 50 6.4 43.6
23:35 1017 30.03 846 24.98 16.8 62.2 50 6.4 43.6
23:40 1017 30.03 846 24.98 16.6 62 51 6.6 43.9
23:45 1017 30.03 846 24.98 16.6 61.8 52 6.7 44.1
23:50 1017 30.03 846 24.98 16.7 62.1 51 6.6 43.9
23:55 1017 30.03 846 24.98 16.7 62 51 6.7 44
24:00 1017 30.03 846 24.98 16.5 61.7 52 6.7 44.1